createdAt,value
2017-05-01T00:00:58.188Z,0
2017-05-01T00:02:20.066Z,0
2017-05-01T00:03:42.845Z,0
2017-05-01T00:05:04.647Z,0
2017-05-01T00:06:36.231Z,0
2017-05-01T00:07:57.998Z,0
2017-05-01T00:09:19.887Z,0
2017-05-01T00:10:41.707Z,0
2017-05-01T00:12:26.103Z,0
2017-05-01T00:13:49.591Z,0
2017-05-01T00:15:13.885Z,0
2017-05-01T00:16:35.680Z,0
2017-05-01T00:17:57.452Z,0
2017-05-01T00:19:19.232Z,0
2017-05-01T00:20:43.392Z,0
2017-05-01T00:22:05.539Z,0
2017-05-01T00:23:28.865Z,0
2017-05-01T00:24:50.616Z,0
2017-05-01T00:26:13.901Z,0
2017-05-01T00:27:35.749Z,0
2017-05-01T00:28:58.050Z,0
2017-05-01T00:30:19.855Z,0
2017-05-01T00:31:42.342Z,0
2017-05-01T00:33:04.277Z,0
2017-05-01T00:34:26.253Z,0
2017-05-01T00:35:48.547Z,0
2017-05-01T00:37:10.456Z,0
2017-05-01T00:38:33.224Z,0
2017-05-01T00:39:54.977Z,0
2017-05-01T00:41:16.736Z,0
2017-05-01T00:42:38.670Z,0
2017-05-01T00:44:10.237Z,0
2017-05-01T00:45:32.029Z,0
2017-05-01T00:46:54.938Z,0
2017-05-01T00:48:16.830Z,0
2017-05-01T00:49:38.685Z,0
2017-05-01T00:51:00.481Z,0
2017-05-01T00:52:22.377Z,0
2017-05-01T00:53:45.250Z,0
2017-05-01T00:55:08.016Z,0
2017-05-01T00:56:29.735Z,0
2017-05-01T00:57:51.476Z,0
2017-05-01T00:59:13.292Z,0
2017-05-01T01:00:36.116Z,0
2017-05-01T01:01:57.922Z,0
2017-05-01T01:03:19.782Z,0
2017-05-01T01:04:41.560Z,0
2017-05-01T01:06:03.398Z,0
2017-05-01T01:07:25.318Z,0
2017-05-01T01:08:47.587Z,0
2017-05-01T01:10:10.750Z,0
2017-05-01T01:11:32.570Z,0
2017-05-01T01:12:54.388Z,0
2017-05-01T01:14:16.216Z,0
2017-05-01T01:15:38.062Z,0
2017-05-01T01:17:00.828Z,0
2017-05-01T01:18:23.647Z,0
2017-05-01T01:19:45.505Z,0
2017-05-01T01:21:07.389Z,0
2017-05-01T01:22:29.243Z,0
2017-05-01T01:23:51.046Z,0
2017-05-01T01:25:12.832Z,0
2017-05-01T01:26:34.622Z,0
2017-05-01T01:27:56.382Z,0
2017-05-01T01:29:18.155Z,0
2017-05-01T01:30:39.900Z,0
2017-05-01T01:32:01.865Z,0
2017-05-01T01:33:23.621Z,0
2017-05-01T01:34:46.476Z,0
2017-05-01T01:36:08.198Z,0
2017-05-01T01:37:30.071Z,0
2017-05-01T01:38:51.800Z,0
2017-05-01T01:40:13.601Z,0
2017-05-01T01:41:35.407Z,0
2017-05-01T01:42:57.811Z,0
2017-05-01T01:44:20.047Z,0
2017-05-01T01:45:41.906Z,0
2017-05-01T01:47:03.766Z,0
2017-05-01T01:48:25.641Z,0
2017-05-01T01:49:47.530Z,0
2017-05-01T01:51:09.375Z,0
2017-05-01T01:52:32.131Z,0
2017-05-01T01:53:54.011Z,0
2017-05-01T01:55:15.896Z,0
2017-05-01T01:56:37.835Z,0
2017-05-01T01:57:59.660Z,0
2017-05-01T01:59:21.543Z,0
2017-05-01T02:00:43.347Z,0
2017-05-01T02:02:05.266Z,0
2017-05-01T02:03:27.108Z,0
2017-05-01T02:04:48.949Z,0
2017-05-01T02:06:10.769Z,0
2017-05-01T02:07:32.505Z,0
2017-05-01T02:08:54.240Z,0
2017-05-01T02:10:17.008Z,0
2017-05-01T02:11:38.762Z,0
2017-05-01T02:13:00.576Z,0
2017-05-01T02:14:23.321Z,0
2017-05-01T02:15:45.124Z,0
2017-05-01T02:17:07.414Z,0
2017-05-01T02:18:29.831Z,0
2017-05-01T02:19:52.217Z,0
2017-05-01T02:21:14.067Z,0
2017-05-01T02:22:35.841Z,0
2017-05-01T02:23:57.597Z,0
2017-05-01T02:25:19.414Z,0
2017-05-01T02:26:41.201Z,0
2017-05-01T02:28:03.039Z,0
2017-05-01T02:29:24.841Z,0
2017-05-01T02:30:47.755Z,0
2017-05-01T02:32:09.619Z,0
2017-05-01T02:33:31.410Z,0
2017-05-01T02:34:53.185Z,0
2017-05-01T02:36:14.928Z,0
2017-05-01T02:37:36.804Z,0
2017-05-01T02:38:59.622Z,0
2017-05-01T02:40:21.516Z,0
2017-05-01T02:41:43.342Z,0
2017-05-01T02:43:05.098Z,0
2017-05-01T02:44:26.858Z,0
2017-05-01T02:45:48.633Z,0
2017-05-01T02:47:10.368Z,0
2017-05-01T02:48:32.232Z,0
2017-05-01T02:49:54.020Z,0
2017-05-01T02:51:16.147Z,0
2017-05-01T02:52:38.403Z,0
2017-05-01T02:54:00.506Z,0
2017-05-01T02:55:22.358Z,0
2017-05-01T02:56:44.287Z,0
2017-05-01T02:58:05.995Z,0
2017-05-01T02:59:27.858Z,0
2017-05-01T03:00:49.617Z,0
2017-05-01T03:02:11.418Z,0
2017-05-01T03:03:33.208Z,0
2017-05-01T03:04:55.205Z,0
2017-05-01T03:06:18.009Z,0
2017-05-01T03:07:39.809Z,0
2017-05-01T03:09:02.669Z,0
2017-05-01T03:10:24.615Z,0
2017-05-01T03:11:46.450Z,0
2017-05-01T03:13:08.208Z,0
2017-05-01T03:14:30.021Z,0
2017-05-01T03:15:51.844Z,0
2017-05-01T03:17:13.614Z,0
2017-05-01T03:18:35.396Z,0
2017-05-01T03:19:57.250Z,0
2017-05-01T03:21:19.105Z,0
2017-05-01T03:22:40.849Z,0
2017-05-01T03:24:02.606Z,0
2017-05-01T03:25:24.557Z,0
2017-05-01T03:26:46.866Z,0
2017-05-01T03:28:08.942Z,0
2017-05-01T03:29:30.683Z,0
2017-05-01T03:30:52.526Z,0
2017-05-01T03:32:14.362Z,0
2017-05-01T03:33:37.130Z,0
2017-05-01T03:34:58.917Z,0
2017-05-01T03:36:20.779Z,0
2017-05-01T03:37:42.658Z,0
2017-05-01T03:39:04.490Z,0
2017-05-01T03:40:26.255Z,0
2017-05-01T03:41:48.018Z,0
2017-05-01T03:43:09.914Z,0
2017-05-01T03:44:31.726Z,0
2017-05-01T03:45:54.554Z,5
2017-05-01T03:47:16.365Z,5
2017-05-01T03:48:38.281Z,5
2017-05-01T03:50:00.063Z,5
2017-05-01T03:51:21.941Z,5
2017-05-01T03:52:43.683Z,10
2017-05-01T03:54:05.569Z,10
2017-05-01T03:55:27.307Z,10
2017-05-01T03:56:49.094Z,15
2017-05-01T03:58:10.880Z,15
2017-05-01T03:59:32.767Z,15
2017-05-01T04:00:56.804Z,20
2017-05-01T04:02:18.991Z,20
2017-05-01T04:03:41.849Z,20
2017-05-01T04:05:03.620Z,25
2017-05-01T04:06:25.464Z,25
2017-05-01T04:07:47.269Z,25
2017-05-01T04:09:09.004Z,30
2017-05-01T04:10:30.923Z,30
2017-05-01T04:11:52.734Z,35
2017-05-01T04:13:14.528Z,35
2017-05-01T04:14:47.061Z,40
2017-05-01T04:16:08.879Z,40
2017-05-01T04:17:30.629Z,45
2017-05-01T04:18:52.472Z,45
2017-05-01T04:20:14.211Z,50
2017-05-01T04:21:36.052Z,50
2017-05-01T04:22:57.975Z,55
2017-05-01T04:24:19.847Z,55
2017-05-01T04:25:41.612Z,60
2017-05-01T04:27:03.476Z,60
2017-05-01T04:28:25.303Z,65
2017-05-01T04:29:47.119Z,70
2017-05-01T04:31:08.978Z,70
2017-05-01T04:32:30.800Z,75
2017-05-01T04:33:52.653Z,80
2017-05-01T04:35:14.634Z,80
2017-05-01T04:36:36.688Z,85
2017-05-01T04:37:58.942Z,90
2017-05-01T04:39:20.742Z,95
2017-05-01T04:40:42.565Z,100
2017-05-01T04:42:04.293Z,105
2017-05-01T04:43:26.223Z,110
2017-05-01T04:44:48.022Z,115
2017-05-01T04:46:09.774Z,120
2017-05-01T04:47:31.538Z,125
2017-05-01T04:48:54.038Z,130
2017-05-01T04:50:15.805Z,135
2017-05-01T04:51:37.719Z,135
2017-05-01T04:52:59.495Z,140
2017-05-01T04:54:21.412Z,145
2017-05-01T04:55:43.218Z,155
2017-05-01T04:57:06.030Z,165
2017-05-01T04:58:27.915Z,170
2017-05-01T04:59:49.684Z,185
2017-05-01T05:01:11.494Z,195
2017-05-01T05:02:33.280Z,215
2017-05-01T05:03:55.141Z,225
2017-05-01T05:05:16.952Z,240
2017-05-01T05:06:38.817Z,250
2017-05-01T05:08:02.723Z,270
2017-05-01T05:09:24.580Z,290
2017-05-01T05:10:46.713Z,310
2017-05-01T05:12:08.712Z,325
2017-05-01T05:13:30.914Z,350
2017-05-01T05:14:52.752Z,380
2017-05-01T05:16:14.534Z,395
2017-05-01T05:17:36.284Z,420
2017-05-01T05:19:07.922Z,435
2017-05-01T05:20:29.780Z,445
2017-05-01T05:21:51.598Z,450
2017-05-01T05:23:13.433Z,440
2017-05-01T05:24:35.181Z,445
2017-05-01T05:25:57.039Z,450
2017-05-01T05:27:18.931Z,455
2017-05-01T05:28:40.844Z,455
2017-05-01T05:30:02.684Z,450
2017-05-01T05:31:24.456Z,445
2017-05-01T05:32:46.310Z,435
2017-05-01T05:34:08.158Z,415
2017-05-01T05:35:29.979Z,395
2017-05-01T05:36:53.425Z,380
2017-05-01T05:38:16.357Z,370
2017-05-01T05:39:38.918Z,375
2017-05-01T05:41:01.106Z,390
2017-05-01T05:42:22.955Z,405
2017-05-01T05:43:44.725Z,425
2017-05-01T05:45:18.099Z,435
2017-05-01T05:46:40.317Z,435
2017-05-01T05:48:02.441Z,425
2017-05-01T05:49:24.400Z,420
2017-05-01T05:50:46.569Z,415
2017-05-01T05:52:08.417Z,410
2017-05-01T05:53:30.189Z,410
2017-05-01T05:54:52.057Z,435
2017-05-01T05:56:13.959Z,460
2017-05-01T05:57:35.842Z,485
2017-05-01T05:58:57.672Z,510
2017-05-01T06:00:20.490Z,545
2017-05-01T06:01:42.238Z,560
2017-05-01T06:03:04.175Z,585
2017-05-01T06:04:25.947Z,575
2017-05-01T06:05:47.744Z,560
2017-05-01T06:07:09.507Z,555
2017-05-01T06:08:31.302Z,535
2017-05-01T06:09:53.131Z,530
2017-05-01T06:11:15.028Z,525
2017-05-01T06:12:37.114Z,520
2017-05-01T06:13:59.159Z,525
2017-05-01T06:15:20.956Z,525
2017-05-01T06:16:43.910Z,525
2017-05-01T06:18:05.770Z,525
2017-05-01T06:19:27.608Z,535
2017-05-01T06:20:49.467Z,550
2017-05-01T06:22:12.130Z,575
2017-05-01T06:23:34.250Z,595
2017-05-01T06:25:06.993Z,625
2017-05-01T06:26:30.087Z,670
2017-05-01T06:27:54.134Z,700
2017-05-01T06:29:20.415Z,730
2017-05-01T06:30:42.182Z,760
2017-05-01T06:32:08.090Z,775
2017-05-01T06:33:30.135Z,785
2017-05-01T06:34:51.863Z,785
2017-05-01T06:36:31.935Z,780
2017-05-01T06:38:05.875Z,775
2017-05-01T06:39:27.798Z,780
2017-05-01T06:40:49.680Z,780
2017-05-01T06:42:11.547Z,785
2017-05-01T06:43:39.505Z,790
2017-05-01T06:45:02.991Z,800
2017-05-01T06:46:26.596Z,800
2017-05-01T06:47:58.500Z,785
2017-05-01T06:49:20.358Z,800
2017-05-01T06:50:42.258Z,805
2017-05-01T06:52:04.078Z,825
2017-05-01T06:53:26.025Z,830
2017-05-01T06:54:48.579Z,830
2017-05-01T06:56:10.553Z,820
2017-05-01T06:57:32.424Z,825
2017-05-01T06:58:54.644Z,835
2017-05-01T07:00:17.039Z,840
2017-05-01T07:01:42.936Z,845
2017-05-01T07:03:04.793Z,860
2017-05-01T07:04:26.765Z,875
2017-05-01T07:05:48.632Z,880
2017-05-01T07:07:10.910Z,885
2017-05-01T07:08:32.776Z,910
2017-05-01T07:09:54.551Z,915
2017-05-01T07:11:16.351Z,930
2017-05-01T07:12:38.202Z,940
2017-05-01T07:14:00.066Z,940
2017-05-01T07:15:21.955Z,945
2017-05-01T07:16:43.880Z,960
2017-05-01T07:18:05.672Z,955
2017-05-01T07:19:27.565Z,960
2017-05-01T07:20:49.340Z,960
2017-05-01T07:22:11.224Z,975
2017-05-01T07:23:33.345Z,975
2017-05-01T07:24:55.444Z,975
2017-05-01T07:26:17.646Z,975
2017-05-01T07:27:39.707Z,975
2017-05-01T07:29:02.779Z,995
2017-05-01T07:30:24.667Z,1005
2017-05-01T07:31:46.515Z,1010
2017-05-01T07:33:08.771Z,1025
2017-05-01T07:34:32.004Z,1010
2017-05-01T07:35:54.030Z,1005
2017-05-01T07:37:16.397Z,1010
2017-05-01T07:38:38.320Z,1000
2017-05-01T07:40:00.316Z,995
2017-05-01T07:41:25.014Z,1005
2017-05-01T07:42:47.015Z,1015
2017-05-01T07:44:09.431Z,1030
2017-05-01T07:45:31.353Z,1030
2017-05-01T07:46:53.253Z,1035
2017-05-01T07:48:15.201Z,1045
2017-05-01T07:49:37.194Z,1055
2017-05-01T07:50:59.170Z,1065
2017-05-01T07:52:21.052Z,1060
2017-05-01T07:53:42.854Z,1055
2017-05-01T07:55:04.692Z,1065
2017-05-01T07:56:26.582Z,1080
2017-05-01T07:57:48.505Z,1095
2017-05-01T07:59:11.416Z,1090
2017-05-01T08:00:33.258Z,1090
2017-05-01T08:01:55.057Z,1075
2017-05-01T08:03:16.906Z,1075
2017-05-01T08:04:38.782Z,1060
2017-05-01T08:06:00.673Z,1050
2017-05-01T08:07:22.467Z,1030
2017-05-01T08:08:44.413Z,1035
2017-05-01T08:10:06.688Z,990
2017-05-01T08:11:28.949Z,960
2017-05-01T08:12:50.754Z,990
2017-05-01T08:14:12.640Z,995
2017-05-01T08:15:34.531Z,1020
2017-05-01T08:16:56.413Z,1065
2017-05-01T08:18:18.293Z,1110
2017-05-01T08:19:40.203Z,1110
2017-05-01T08:21:02.124Z,1070
2017-05-01T08:22:23.941Z,1065
2017-05-01T08:35:10.601Z,1005
2017-05-01T08:36:32.523Z,975
2017-05-01T08:37:54.310Z,975
2017-05-01T08:39:16.189Z,970
2017-05-01T08:40:38.049Z,965
2017-05-01T08:41:59.956Z,960
2017-05-01T08:43:31.994Z,980
2017-05-01T08:49:52.186Z,1035
2017-05-01T08:51:14.077Z,1040
2017-05-01T08:52:35.926Z,1025
2017-05-01T08:54:07.358Z,1030
2017-05-01T08:55:29.488Z,1050
2017-05-01T08:56:53.123Z,1025
2017-05-01T08:58:18.622Z,1030
2017-05-01T08:59:40.418Z,1050
2017-05-01T09:01:02.271Z,1045
2017-05-01T09:02:24.106Z,1035
2017-05-01T09:03:45.892Z,1010
2017-05-01T09:05:07.791Z,1030
2017-05-01T09:06:29.561Z,1035
2017-05-01T09:07:51.399Z,1055
2017-05-01T09:09:13.159Z,1410
2017-05-01T09:33:40.979Z,1780
2017-05-01T09:35:06.143Z,1615
2017-05-01T09:37:03.205Z,1410
2017-05-01T09:38:58.457Z,1330
2017-05-01T09:40:22.072Z,1080
2017-05-01T09:42:00.197Z,1110
2017-05-01T09:43:51.333Z,1035
2017-05-01T09:45:38.988Z,1120
2017-05-01T09:47:01.205Z,1155
2017-05-01T09:48:23.067Z,1015
2017-05-01T09:49:44.901Z,985
2017-05-01T09:51:06.658Z,975
2017-05-01T09:52:28.473Z,1135
2017-05-01T09:53:50.310Z,1360
2017-05-01T09:55:12.233Z,1325
2017-05-01T09:56:34.124Z,1435
2017-05-01T09:57:55.883Z,1650
2017-05-01T09:59:17.648Z,1950
2017-05-01T10:12:20.474Z,1295
2017-05-01T10:13:44.205Z,1250
2017-05-01T10:15:06.013Z,1110
2017-05-01T10:16:27.926Z,1020
2017-05-01T10:18:18.142Z,1340
2017-05-01T10:19:40.239Z,1860
2017-05-01T10:21:02.032Z,2110
2017-05-01T10:22:23.909Z,1905
2017-05-01T10:23:45.774Z,1655
2017-05-01T10:25:07.592Z,1980
2017-05-01T10:26:29.455Z,1580
2017-05-01T10:27:51.204Z,1600
2017-05-01T10:29:12.990Z,1850
2017-05-01T10:30:34.748Z,2385
2017-05-01T10:31:56.507Z,2410
2017-05-01T10:33:18.344Z,2050
2017-05-01T10:34:50.004Z,1495
2017-05-01T10:36:11.781Z,1540
2017-05-01T10:37:33.642Z,1800
2017-05-01T10:38:55.488Z,2665
2017-05-01T10:40:17.654Z,2330
2017-05-01T10:41:39.492Z,2430
2017-05-01T10:43:01.279Z,3605
2017-05-01T10:44:23.129Z,2240
2017-05-01T10:45:44.981Z,2605
2017-05-01T10:47:06.816Z,2265
2017-05-01T10:48:28.658Z,2850
2017-05-01T10:49:50.467Z,2240
2017-05-01T10:51:12.292Z,1685
2017-05-01T10:52:34.077Z,1775
2017-05-01T10:53:55.961Z,1910
2017-05-01T10:55:17.807Z,1865
2017-05-01T10:56:39.691Z,2075
2017-05-01T10:58:01.634Z,2255
2017-05-01T10:59:23.519Z,2225
2017-05-01T11:00:45.399Z,2120
2017-05-01T11:02:07.372Z,2135
2017-05-01T11:03:29.272Z,1990
2017-05-01T11:04:51.094Z,1235
2017-05-01T11:06:13.082Z,1150
2017-05-01T11:07:35.022Z,1275
2017-05-01T11:08:56.992Z,1255
2017-05-01T11:10:19.756Z,1005
2017-05-01T11:11:41.890Z,770
2017-05-01T11:13:03.724Z,610
2017-05-01T11:14:25.567Z,615
2017-05-01T11:15:47.409Z,720
2017-05-01T11:17:09.251Z,840
2017-05-01T11:18:31.074Z,780
2017-05-01T11:19:53.075Z,685
2017-05-01T11:21:14.934Z,590
2017-05-01T11:22:36.739Z,505
2017-05-01T11:23:59.703Z,435
2017-05-01T11:25:21.638Z,370
2017-05-01T11:26:43.462Z,330
2017-05-01T11:28:05.343Z,295
2017-05-01T11:29:27.119Z,280
2017-05-01T11:30:48.900Z,265
2017-05-01T11:32:10.752Z,240
2017-05-01T11:33:32.544Z,245
2017-05-01T11:34:54.360Z,260
2017-05-01T11:36:16.118Z,275
2017-05-01T11:39:09.505Z,300
2017-05-01T11:40:31.324Z,320
2017-05-01T11:41:53.076Z,350
2017-05-01T11:43:14.939Z,360
2017-05-01T11:44:36.747Z,370
2017-05-01T11:45:58.646Z,385
2017-05-01T11:47:20.521Z,415
2017-05-01T11:48:42.582Z,475
2017-05-01T11:50:04.399Z,545
2017-05-01T11:51:26.266Z,565
2017-05-01T11:52:48.072Z,555
2017-05-01T11:54:10.053Z,550
2017-05-01T11:55:31.972Z,535
2017-05-01T11:56:53.772Z,510
2017-05-01T11:58:15.676Z,500
2017-05-01T11:59:37.540Z,505
2017-05-01T12:00:59.352Z,505
2017-05-01T12:02:21.357Z,515
2017-05-01T12:03:43.369Z,555
2017-05-01T12:05:05.150Z,580
2017-05-01T12:06:26.943Z,575
2017-05-01T12:07:48.989Z,560
2017-05-01T12:09:20.607Z,580
2017-05-01T12:10:42.370Z,555
2017-05-01T12:12:04.244Z,490
2017-05-01T12:13:26.546Z,475
2017-05-01T12:14:48.420Z,485
2017-05-01T12:16:11.304Z,455
2017-05-01T12:17:33.208Z,410
2017-05-01T12:18:54.973Z,400
2017-05-01T12:20:16.777Z,370
2017-05-01T12:21:38.641Z,355
2017-05-01T12:23:00.506Z,355
2017-05-01T12:24:22.365Z,350
2017-05-01T12:25:44.180Z,375
2017-05-01T12:27:06.027Z,390
2017-05-01T12:28:27.842Z,380
2017-05-01T12:29:49.748Z,385
2017-05-01T12:31:11.746Z,420
2017-05-01T12:32:33.596Z,425
2017-05-01T12:33:55.458Z,445
2017-05-01T12:35:17.421Z,455
2017-05-01T12:36:39.297Z,460
2017-05-01T12:38:01.130Z,470
2017-05-01T12:39:22.906Z,480
2017-05-01T12:40:44.747Z,455
2017-05-01T12:42:06.581Z,430
2017-05-01T12:43:28.412Z,405
2017-05-01T12:44:50.271Z,325
2017-05-01T12:46:12.131Z,360
2017-05-01T12:47:33.856Z,335
2017-05-01T12:48:55.665Z,370
2017-05-01T12:50:17.455Z,355
2017-05-01T12:51:39.404Z,370
2017-05-01T12:53:01.356Z,335
2017-05-01T12:54:23.276Z,315
2017-05-01T12:55:45.130Z,290
2017-05-01T12:57:07.062Z,270
2017-05-01T12:58:28.951Z,255
2017-05-01T12:59:50.826Z,250
2017-05-01T13:01:12.735Z,255
2017-05-01T13:02:34.850Z,235
2017-05-01T13:03:56.724Z,250
2017-05-01T13:05:18.509Z,225
2017-05-01T13:06:40.323Z,240
2017-05-01T13:08:02.407Z,235
2017-05-01T13:09:24.287Z,230
2017-05-01T13:10:46.215Z,255
2017-05-01T13:12:08.015Z,250
2017-05-01T13:13:29.947Z,240
2017-05-01T13:14:51.750Z,265
2017-05-01T13:16:13.637Z,275
2017-05-01T13:17:36.503Z,250
2017-05-01T13:18:58.444Z,270
2017-05-01T13:20:20.224Z,250
2017-05-01T13:21:42.120Z,220
2017-05-01T13:23:03.950Z,230
2017-05-01T13:24:25.867Z,200
2017-05-01T13:25:47.670Z,175
2017-05-01T13:27:09.520Z,145
2017-05-01T13:28:31.359Z,125
2017-05-01T13:29:53.189Z,110
2017-05-01T13:31:15.035Z,110
2017-05-01T13:32:36.844Z,110
2017-05-01T13:33:58.739Z,120
2017-05-01T13:35:20.607Z,120
2017-05-01T13:36:42.503Z,115
2017-05-01T13:38:04.385Z,135
2017-05-01T13:39:26.173Z,140
2017-05-01T13:40:48.153Z,160
2017-05-01T13:42:09.911Z,160
2017-05-01T13:43:31.790Z,155
2017-05-01T13:44:53.592Z,175
2017-05-01T13:46:15.407Z,200
2017-05-01T13:47:37.339Z,185
2017-05-01T13:48:59.139Z,235
2017-05-01T13:50:21.053Z,205
2017-05-01T13:51:42.888Z,210
2017-05-01T13:53:04.776Z,210
2017-05-01T13:54:30.998Z,180
2017-05-01T13:55:52.888Z,195
2017-05-01T13:57:14.844Z,180
2017-05-01T13:58:36.674Z,205
2017-05-01T13:59:58.535Z,195
2017-05-01T14:01:20.323Z,200
2017-05-01T14:02:42.485Z,190
2017-05-01T14:04:04.313Z,175
2017-05-01T14:05:26.145Z,155
2017-05-01T14:06:48.052Z,135
2017-05-01T14:08:10.026Z,150
2017-05-01T14:09:31.833Z,145
2017-05-01T14:10:53.730Z,135
2017-05-01T14:12:15.612Z,160
2017-05-01T14:13:37.469Z,180
2017-05-01T14:15:00.374Z,205
2017-05-01T14:16:22.228Z,195
2017-05-01T14:17:44.042Z,200
2017-05-01T14:19:05.968Z,195
2017-05-01T14:20:27.785Z,190
2017-05-01T14:21:49.709Z,195
2017-05-01T14:23:11.554Z,245
2017-05-01T14:24:33.388Z,250
2017-05-01T14:25:56.230Z,265
2017-05-01T14:27:18.050Z,285
2017-05-01T14:28:39.893Z,275
2017-05-01T14:30:01.731Z,275
2017-05-01T14:31:23.589Z,280
2017-05-01T14:32:45.422Z,265
2017-05-01T14:34:07.286Z,270
2017-05-01T14:35:29.223Z,325
2017-05-01T14:36:51.005Z,335
2017-05-01T14:38:12.940Z,310
2017-05-01T14:39:37.109Z,300
2017-05-01T14:40:59.008Z,305
2017-05-01T14:42:20.900Z,290
2017-05-01T14:43:42.667Z,345
2017-05-01T14:45:06.539Z,345
2017-05-01T14:46:31.840Z,285
2017-05-01T14:47:54.680Z,335
2017-05-01T14:49:16.576Z,340
2017-05-01T14:50:38.515Z,275
2017-05-01T14:52:00.378Z,270
2017-05-01T14:53:22.222Z,285
2017-05-01T14:54:44.178Z,295
2017-05-01T14:56:06.075Z,315
2017-05-01T14:57:28.049Z,335
2017-05-01T14:58:50.029Z,315
2017-05-01T15:00:11.836Z,315
2017-05-01T15:01:33.661Z,330
2017-05-01T15:02:55.572Z,345
2017-05-01T15:04:17.395Z,320
2017-05-01T15:05:39.244Z,325
2017-05-01T15:07:01.120Z,340
2017-05-01T15:08:23.178Z,320
2017-05-01T15:09:45.174Z,315
2017-05-01T15:11:06.993Z,280
2017-05-01T15:12:28.860Z,275
2017-05-01T15:13:52.015Z,255
2017-05-01T15:15:13.959Z,245
2017-05-01T15:16:35.785Z,245
2017-05-01T15:17:57.758Z,240
2017-05-01T15:19:19.857Z,230
2017-05-01T15:20:41.822Z,240
2017-05-01T15:22:03.863Z,250
2017-05-01T15:23:26.293Z,270
2017-05-01T15:24:49.044Z,265
2017-05-01T15:27:20.216Z,225
2017-05-01T15:28:43.143Z,220
2017-05-01T15:30:04.969Z,250
2017-05-01T15:31:26.853Z,255
2017-05-01T15:32:48.738Z,265
2017-05-01T15:34:10.635Z,270
2017-05-01T15:35:32.524Z,265
2017-05-01T15:36:54.306Z,280
2017-05-01T15:38:16.108Z,270
2017-05-01T15:39:37.992Z,245
2017-05-01T15:41:00.953Z,280
2017-05-01T15:42:22.800Z,265
2017-05-01T15:43:44.673Z,230
2017-05-01T15:45:06.474Z,235
2017-05-01T15:46:29.347Z,230
2017-05-01T15:47:51.167Z,225
2017-05-01T15:49:13.059Z,245
2017-05-01T15:50:35.947Z,215
2017-05-01T15:51:57.831Z,215
2017-05-01T15:53:19.878Z,200
2017-05-01T15:54:42.950Z,180
2017-05-01T15:56:04.880Z,205
2017-05-01T15:57:27.759Z,220
2017-05-01T15:58:49.891Z,235
2017-05-01T16:00:11.896Z,240
2017-05-01T16:01:35.265Z,250
2017-05-01T16:02:57.313Z,285
2017-05-01T16:04:20.222Z,275
2017-05-01T16:05:42.144Z,245
2017-05-01T16:07:04.104Z,200
2017-05-01T16:08:25.994Z,180
2017-05-01T16:09:47.920Z,180
2017-05-01T16:11:09.794Z,175
2017-05-01T16:12:31.683Z,170
2017-05-01T16:13:53.588Z,170
2017-05-01T16:15:15.541Z,160
2017-05-01T16:16:38.387Z,150
2017-05-01T16:18:00.207Z,140
2017-05-01T16:19:22.059Z,135
2017-05-01T16:20:43.906Z,130
2017-05-01T16:22:05.710Z,130
2017-05-01T16:23:27.494Z,135
2017-05-01T16:24:51.455Z,140
2017-05-01T16:26:13.240Z,135
2017-05-01T16:27:38.430Z,135
2017-05-01T16:29:00.256Z,135
2017-05-01T16:30:22.220Z,145
2017-05-01T16:31:44.181Z,140
2017-05-01T16:33:06.108Z,140
2017-05-01T16:34:27.974Z,135
2017-05-01T16:35:49.757Z,140
2017-05-01T16:37:11.517Z,140
2017-05-01T16:38:33.335Z,145
2017-05-01T16:39:55.267Z,145
2017-05-01T16:41:18.243Z,120
2017-05-01T16:42:40.068Z,125
2017-05-01T16:44:03.883Z,110
2017-05-01T16:45:25.802Z,130
2017-05-01T16:46:47.784Z,100
2017-05-01T16:48:10.678Z,110
2017-05-01T16:49:32.675Z,115
2017-05-01T16:50:54.643Z,105
2017-05-01T16:52:16.650Z,120
2017-05-01T16:53:38.539Z,95
2017-05-01T16:55:00.369Z,95
2017-05-01T16:56:22.146Z,105
2017-05-01T16:57:43.997Z,105
2017-05-01T16:59:05.783Z,100
2017-05-01T17:00:27.634Z,95
2017-05-01T17:01:49.457Z,95
2017-05-01T17:03:11.416Z,105
2017-05-01T17:04:34.320Z,90
2017-05-01T17:05:57.123Z,95
2017-05-01T17:07:19.026Z,110
2017-05-01T17:08:41.051Z,115
2017-05-01T17:10:02.801Z,105
2017-05-01T17:11:24.722Z,105
2017-05-01T17:12:46.711Z,105
2017-05-01T17:14:12.665Z,85
2017-05-01T17:16:53.932Z,75
2017-05-01T17:18:15.839Z,80
2017-05-01T17:19:41.326Z,70
2017-05-01T17:21:04.284Z,75
2017-05-01T17:22:26.233Z,80
2017-05-01T17:23:48.013Z,75
2017-05-01T17:25:11.767Z,75
2017-05-01T17:26:38.109Z,70
2017-05-01T17:28:00.223Z,65
2017-05-01T17:29:26.701Z,65
2017-05-01T17:30:48.920Z,55
2017-05-01T17:32:11.530Z,50
2017-05-01T17:33:33.539Z,50
2017-05-01T17:34:56.478Z,50
2017-05-01T17:36:20.472Z,50
2017-05-01T17:37:43.284Z,50
2017-05-01T17:39:05.034Z,45
2017-05-01T17:40:27.020Z,40
2017-05-01T17:41:48.918Z,45
2017-05-01T17:43:10.715Z,45
2017-05-01T17:44:32.560Z,45
2017-05-01T17:45:54.498Z,40
2017-05-01T17:47:17.600Z,40
2017-05-01T17:48:39.573Z,35
2017-05-01T17:50:02.416Z,30
2017-05-01T17:51:24.382Z,25
2017-05-01T17:52:46.351Z,25
2017-05-01T17:54:08.313Z,25
2017-05-01T17:55:30.228Z,25
2017-05-01T17:56:52.134Z,20
2017-05-01T17:58:14.140Z,15
2017-05-01T17:59:36.084Z,15
2017-05-01T18:00:57.921Z,15
2017-05-01T18:02:23.825Z,15
2017-05-01T18:03:45.830Z,15
2017-05-01T18:05:08.233Z,15
2017-05-01T18:06:31.207Z,15
2017-05-01T18:07:53.166Z,15
2017-05-01T18:09:17.169Z,10
2017-05-01T18:10:41.144Z,15
2017-05-01T18:12:04.086Z,10
2017-05-01T18:13:27.151Z,10
2017-05-01T18:14:49.391Z,10
2017-05-01T18:16:13.329Z,10
2017-05-01T18:17:35.121Z,5
2017-05-01T18:18:58.079Z,5
2017-05-01T18:20:20.111Z,5
2017-05-01T18:21:42.031Z,5
2017-05-01T18:23:04.120Z,5
2017-05-01T18:24:26.977Z,0
2017-05-01T18:25:48.896Z,0
2017-05-01T18:27:10.781Z,0
2017-05-01T18:28:32.554Z,0
2017-05-01T18:29:54.443Z,0
2017-05-01T18:31:16.544Z,0
2017-05-01T18:32:38.447Z,0
2017-05-01T18:34:01.476Z,0
2017-05-01T18:35:23.742Z,0
2017-05-01T18:36:45.586Z,0
2017-05-01T18:38:07.727Z,0
2017-05-01T18:39:29.979Z,0
2017-05-01T18:40:52.845Z,0
2017-05-01T18:42:14.865Z,0
2017-05-01T18:43:37.404Z,0
2017-05-01T18:44:59.633Z,0
2017-05-01T18:46:23.200Z,0
2017-05-01T18:47:45.075Z,0
2017-05-01T18:49:06.994Z,0
2017-05-01T18:50:28.848Z,0
2017-05-01T18:51:50.811Z,0
2017-05-01T18:53:12.824Z,0
2017-05-01T18:54:35.034Z,0
2017-05-01T18:55:56.976Z,0
2017-05-01T18:57:19.328Z,0
2017-05-01T18:58:42.366Z,0
2017-05-01T19:00:04.965Z,0
2017-05-01T19:01:26.935Z,0
2017-05-01T19:02:48.961Z,0
2017-05-01T19:04:11.861Z,0
2017-05-01T19:05:34.915Z,0
2017-05-01T19:06:56.812Z,0
2017-05-01T19:08:18.716Z,0
2017-05-01T19:09:42.914Z,0
2017-05-01T19:11:04.750Z,0
2017-05-01T19:12:26.634Z,0
2017-05-01T19:13:48.465Z,0
2017-05-01T19:15:10.420Z,0
2017-05-01T19:16:32.595Z,0
2017-05-01T19:19:04.047Z,0
2017-05-01T19:20:25.992Z,0
2017-05-01T19:21:48.994Z,0
2017-05-01T19:23:11.081Z,0
2017-05-01T19:24:33.654Z,0
2017-05-01T19:25:55.650Z,0
2017-05-01T19:27:46.046Z,0
2017-05-01T19:29:12.081Z,0
2017-05-01T19:30:37.203Z,0
2017-05-01T19:33:09.694Z,0
2017-05-01T19:34:33.719Z,0
2017-05-01T19:35:55.795Z,0
2017-05-01T19:38:29.208Z,0
2017-05-01T19:39:54.268Z,0
2017-05-01T19:41:18.102Z,0
2017-05-01T19:42:40.790Z,0
2017-05-01T19:44:07.393Z,0
2017-05-01T19:45:29.753Z,0
2017-05-01T19:46:51.875Z,0
2017-05-01T19:48:25.430Z,0
2017-05-01T19:49:48.079Z,0
2017-05-01T19:51:12.370Z,0
2017-05-01T19:52:35.209Z,0
2017-05-01T19:53:58.006Z,0
2017-05-01T19:55:19.974Z,0
2017-05-01T19:56:42.302Z,0
2017-05-01T19:58:04.240Z,0
2017-05-01T19:59:26.202Z,0
2017-05-01T20:00:48.796Z,0
2017-05-01T20:03:22.340Z,0
2017-05-01T20:05:54.825Z,0
2017-05-01T20:08:27.508Z,0
2017-05-01T20:09:49.636Z,0
2017-05-01T20:11:11.476Z,0
2017-05-01T20:12:37.607Z,0
2017-05-01T20:15:09.059Z,0
2017-05-01T20:17:40.493Z,0
2017-05-01T20:19:03.617Z,0
2017-05-01T20:20:25.510Z,0
2017-05-01T20:22:58.902Z,0
2017-05-01T20:24:20.730Z,0
2017-05-01T20:25:44.624Z,0